createdAt,value
2022-09-10T00:01:19.532Z,3.22
2022-09-10T00:03:48.350Z,2.65
2022-09-10T00:08:41.837Z,2.55
2022-09-10T00:11:10.544Z,2.53
2022-09-10T00:13:40.720Z,2.60
2022-09-10T00:16:10.368Z,2.00
2022-09-10T00:18:37.558Z,2.58
2022-09-10T00:21:10.406Z,2.40
2022-09-10T00:23:37.279Z,2.38
2022-09-10T00:26:14.962Z,2.28
2022-09-10T00:28:42.882Z,2.60
2022-09-10T00:31:10.022Z,2.17
2022-09-10T00:33:37.037Z,3.15
2022-09-10T00:36:06.049Z,1.98
2022-09-10T00:38:32.903Z,2.72
2022-09-10T00:41:08.204Z,2.72
2022-09-10T00:43:57.905Z,2.63
2022-09-10T00:46:27.277Z,2.28
2022-09-10T00:48:56.548Z,2.10
2022-09-10T00:51:24.305Z,2.47
2022-09-10T00:53:51.574Z,2.83
2022-09-10T00:56:18.353Z,1.95
2022-09-10T00:58:46.259Z,2.95
2022-09-10T01:01:13.596Z,2.55
2022-09-10T01:03:41.163Z,2.42
2022-09-10T01:06:08.049Z,2.60
2022-09-10T01:08:34.760Z,2.50
2022-09-10T01:11:18.444Z,2.45
2022-09-10T01:14:12.679Z,2.08
2022-09-10T01:16:52.898Z,2.25
2022-09-10T01:19:41.373Z,2.53
2022-09-10T01:22:16.973Z,2.40
2022-09-10T01:24:56.922Z,2.17
2022-09-10T01:27:35.589Z,3.15
2022-09-10T01:30:07.266Z,2.42
2022-09-10T01:32:56.385Z,3.22
2022-09-10T01:35:28.455Z,2.53
2022-09-10T01:37:58.033Z,2.00
2022-09-10T01:40:29.797Z,2.38
2022-09-10T01:43:07.481Z,2.28
2022-09-10T01:45:51.826Z,2.00
2022-09-10T01:48:56.225Z,2.35
2022-09-10T01:51:36.936Z,2.35
2022-09-10T01:54:25.472Z,2.10
2022-09-10T01:57:00.880Z,2.45
2022-09-10T02:00:09.673Z,2.50
2022-09-10T02:02:48.387Z,2.53
2022-09-10T02:05:18.588Z,2.67
2022-09-10T02:07:46.053Z,2.38
2022-09-10T02:10:12.725Z,2.67
2022-09-10T02:12:40.149Z,1.80
2022-09-10T02:15:08.471Z,2.20
2022-09-10T02:17:36.885Z,2.25
2022-09-10T02:20:07.566Z,2.47
2022-09-10T02:22:36.400Z,2.60
2022-09-10T02:27:30.345Z,2.28
2022-09-10T02:29:57.797Z,2.40
2022-09-10T02:32:24.515Z,2.15
2022-09-10T02:34:51.192Z,2.42
2022-09-10T02:37:18.877Z,2.30
2022-09-10T02:39:46.682Z,1.88
2022-09-10T02:42:17.038Z,2.17
2022-09-10T02:44:44.641Z,2.42
2022-09-10T02:47:11.510Z,3.50
2022-09-10T02:49:38.131Z,2.90
2022-09-10T02:52:04.865Z,2.20
2022-09-10T02:54:31.497Z,3.08
2022-09-10T02:56:58.157Z,3.92
2022-09-10T02:59:25.152Z,2.90
2022-09-10T03:01:51.936Z,2.20
2022-09-10T03:04:18.665Z,4.43
2022-09-10T03:06:45.316Z,2.92
2022-09-10T03:09:11.933Z,1.85
2022-09-10T03:11:39.896Z,2.53
2022-09-10T03:14:10.581Z,2.35
2022-09-10T03:16:37.250Z,2.67
2022-09-10T03:19:03.988Z,2.63
2022-09-10T03:21:30.611Z,2.67
2022-09-10T03:23:57.411Z,4.05
2022-09-10T03:26:27.304Z,2.60
2022-09-10T03:28:54.033Z,3.30
2022-09-10T03:31:21.792Z,2.33
2022-09-10T03:33:49.269Z,2.20
2022-09-10T03:36:15.997Z,2.17
2022-09-10T03:38:42.911Z,2.42
2022-09-10T03:41:10.093Z,2.40
2022-09-10T03:43:36.886Z,3.00
2022-09-10T03:46:03.973Z,2.33
2022-09-10T03:48:30.661Z,3.13
2022-09-10T03:50:57.462Z,2.60
2022-09-10T03:53:24.134Z,2.47
2022-09-10T03:55:51.916Z,2.42
2022-09-10T03:58:19.180Z,2.22
2022-09-10T04:00:46.690Z,2.25
2022-09-10T04:03:14.630Z,2.50
2022-09-10T04:05:45.054Z,2.47
2022-09-10T04:08:13.175Z,3.03
2022-09-10T04:10:41.151Z,2.40
2022-09-10T04:13:08.308Z,2.58
2022-09-10T04:15:34.951Z,2.30
2022-09-10T04:18:01.721Z,2.42
2022-09-10T04:20:28.410Z,2.25
2022-09-10T04:22:56.743Z,3.20
2022-09-10T04:25:23.484Z,1.95
2022-09-10T04:27:50.390Z,2.33
2022-09-10T04:30:18.341Z,2.17
2022-09-10T04:32:45.333Z,2.25
2022-09-10T04:35:15.304Z,2.28
2022-09-10T04:37:43.052Z,2.00
2022-09-10T04:40:10.574Z,2.35
2022-09-10T04:42:37.358Z,2.63
2022-09-10T04:45:04.850Z,3.67
2022-09-10T04:47:31.525Z,3.63
2022-09-10T04:49:58.286Z,2.13
2022-09-10T04:52:24.991Z,3.63
2022-09-10T04:54:51.656Z,2.80
2022-09-10T04:57:18.393Z,2.22
2022-09-10T04:59:45.077Z,2.65
2022-09-10T05:02:11.802Z,2.67
2022-09-10T05:04:39.376Z,2.33
2022-09-10T05:07:06.202Z,2.53
2022-09-10T05:09:33.791Z,2.38
2022-09-10T05:12:01.344Z,2.20
2022-09-10T05:14:29.379Z,2.15
2022-09-10T05:16:56.489Z,2.40
2022-09-10T05:19:23.199Z,2.22
2022-09-10T05:21:49.894Z,2.33
2022-09-10T05:24:16.907Z,3.08
2022-09-10T05:26:44.291Z,3.75
2022-09-10T05:29:11.508Z,2.60
2022-09-10T05:31:38.320Z,2.03
2022-09-10T05:34:05.018Z,2.00
2022-09-10T05:36:34.496Z,2.65
2022-09-10T05:39:03.545Z,2.30
2022-09-10T05:41:31.216Z,2.30
2022-09-10T05:43:58.470Z,1.80
2022-09-10T05:46:25.473Z,1.90
2022-09-10T05:48:54.316Z,2.03
2022-09-10T05:51:21.886Z,2.22
2022-09-10T05:53:48.688Z,1.92
2022-09-10T05:56:15.570Z,1.63
2022-09-10T05:58:45.150Z,1.85
2022-09-10T06:01:11.869Z,2.25
2022-09-10T06:03:38.528Z,2.83
2022-09-10T06:06:06.230Z,1.80
2022-09-10T06:08:33.181Z,1.83
2022-09-10T06:11:05.884Z,1.48
2022-09-10T06:13:34.061Z,2.17
2022-09-10T06:16:01.813Z,1.80
2022-09-10T06:18:29.079Z,3.15
2022-09-10T06:21:07.432Z,2.17
2022-09-10T06:23:34.083Z,1.52
2022-09-10T06:26:09.944Z,2.25
2022-09-10T06:28:37.937Z,1.85
2022-09-10T06:31:05.682Z,1.73
2022-09-10T06:33:32.872Z,2.13
2022-09-10T06:36:01.844Z,2.00
2022-09-10T06:38:31.113Z,2.35
2022-09-10T06:41:00.822Z,2.03
2022-09-10T06:43:30.025Z,2.33
2022-09-10T06:45:56.737Z,1.88
2022-09-10T06:48:49.743Z,1.85
2022-09-10T06:51:14.699Z,2.53
2022-09-10T06:53:43.609Z,1.80
2022-09-10T06:56:12.124Z,2.35
2022-09-10T06:58:39.738Z,2.20
2022-09-10T07:01:13.970Z,2.25
2022-09-10T07:03:41.351Z,2.03
2022-09-10T07:06:11.083Z,2.30
2022-09-10T07:08:37.776Z,2.00
2022-09-10T07:11:08.055Z,1.83
2022-09-10T07:13:35.530Z,2.25
2022-09-10T07:16:02.431Z,2.50
2022-09-10T07:18:29.844Z,2.30
2022-09-10T07:21:08.055Z,2.22
2022-09-10T07:23:35.329Z,2.15
2022-09-10T07:26:06.685Z,2.13
2022-09-10T07:28:33.554Z,2.30
2022-09-10T07:31:00.295Z,2.50
2022-09-10T07:33:27.129Z,2.65
2022-09-10T07:35:53.785Z,2.15
2022-09-10T07:38:20.695Z,2.33
2022-09-10T07:40:48.385Z,2.33
2022-09-10T07:43:15.504Z,2.67
2022-09-10T07:45:42.246Z,2.00
2022-09-10T07:48:11.950Z,2.05
2022-09-10T07:50:39.235Z,2.72
2022-09-10T07:53:06.246Z,1.80
2022-09-10T07:55:33.078Z,2.00
2022-09-10T07:58:00.311Z,2.33
2022-09-10T08:00:27.069Z,2.25
2022-09-10T08:02:53.738Z,1.92
2022-09-10T08:05:20.435Z,2.10
2022-09-10T08:07:47.384Z,2.03
2022-09-10T08:10:14.068Z,2.00
2022-09-10T08:12:41.240Z,4.72
2022-09-10T08:15:08.905Z,3.30
2022-09-10T08:17:36.849Z,2.03
2022-09-10T08:20:06.737Z,2.38
2022-09-10T08:22:34.582Z,2.13
2022-09-10T08:25:02.144Z,2.00
2022-09-10T08:27:28.915Z,2.38
2022-09-10T08:29:56.458Z,2.00
2022-09-10T08:32:23.719Z,2.30
2022-09-10T08:34:51.776Z,1.92
2022-09-10T08:37:19.074Z,1.75
2022-09-10T08:39:45.929Z,2.10
2022-09-10T08:42:37.017Z,2.47
2022-09-10T08:45:12.219Z,1.65
2022-09-10T08:47:53.530Z,2.38
2022-09-10T08:50:43.518Z,2.70
2022-09-10T08:53:16.138Z,3.28
2022-09-10T08:55:46.038Z,3.15
2022-09-10T08:58:23.344Z,2.00
2022-09-10T09:00:58.087Z,1.95
2022-09-10T09:03:31.934Z,1.98
2022-09-10T09:06:01.022Z,2.70
2022-09-10T09:08:34.189Z,2.58
2022-09-10T09:11:07.067Z,4.03
2022-09-10T09:13:33.730Z,2.88
2022-09-10T09:16:32.384Z,2.85
2022-09-10T09:19:22.615Z,2.10
2022-09-10T09:21:51.176Z,2.65
2022-09-10T09:24:48.779Z,2.30
2022-09-10T09:27:18.214Z,3.00
2022-09-10T09:29:50.848Z,3.00
2022-09-10T09:32:19.340Z,2.47
2022-09-10T09:34:54.483Z,2.22
2022-09-10T09:37:25.222Z,2.22
2022-09-10T09:40:08.266Z,2.00
2022-09-10T09:42:48.477Z,2.67
2022-09-10T09:45:24.928Z,2.38
2022-09-10T09:47:52.412Z,2.65
2022-09-10T09:50:19.031Z,2.53
2022-09-10T09:52:46.178Z,3.22
2022-09-10T09:55:44.277Z,2.08
2022-09-10T09:58:29.181Z,2.17
2022-09-10T10:01:04.808Z,2.30
2022-09-10T10:03:54.515Z,4.18
2022-09-10T10:06:47.980Z,2.42
2022-09-10T10:09:20.971Z,2.78
2022-09-10T10:11:51.101Z,2.72
2022-09-10T10:14:20.813Z,2.05
2022-09-10T10:16:48.798Z,2.58
2022-09-10T10:19:34.076Z,2.05
2022-09-10T10:22:21.380Z,3.00
2022-09-10T10:24:50.892Z,4.95
2022-09-10T10:27:32.870Z,2.28
2022-09-10T10:30:04.722Z,2.25
2022-09-10T10:32:59.606Z,2.63
2022-09-10T10:35:41.386Z,2.15
2022-09-10T10:38:23.036Z,2.63
2022-09-10T10:41:03.450Z,2.42
2022-09-10T10:43:42.268Z,2.10
2022-09-10T10:46:16.440Z,2.50
2022-09-10T10:49:04.527Z,2.60
2022-09-10T10:52:04.128Z,2.28
2022-09-10T10:54:59.922Z,1.92
2022-09-10T10:57:45.011Z,2.10
2022-09-10T11:00:20.197Z,2.28
2022-09-10T11:03:01.613Z,2.30
2022-09-10T11:05:38.666Z,2.47
2022-09-10T11:08:17.261Z,2.80
2022-09-10T11:10:48.007Z,2.40
2022-09-10T11:13:27.261Z,2.30
2022-09-10T11:16:15.358Z,2.90
2022-09-10T11:18:48.772Z,5.20
2022-09-10T11:21:23.343Z,2.47
2022-09-10T11:24:03.894Z,2.58
2022-09-10T11:26:47.457Z,2.30
2022-09-10T11:29:41.718Z,2.03
2022-09-10T11:32:27.086Z,2.20
2022-09-10T11:35:15.061Z,2.53
2022-09-10T11:38:12.885Z,2.28
2022-09-10T11:40:46.441Z,2.70
2022-09-10T11:43:42.422Z,2.05
2022-09-10T11:46:19.536Z,2.10
2022-09-10T11:48:49.998Z,2.08
2022-09-10T11:51:25.880Z,2.30
2022-09-10T11:53:54.272Z,2.78
2022-09-10T11:56:26.786Z,2.58
2022-09-10T11:59:14.917Z,2.13
2022-09-10T12:02:05.907Z,1.80
2022-09-10T12:04:56.901Z,2.40
2022-09-10T12:07:42.400Z,2.47
2022-09-10T12:10:17.878Z,2.75
2022-09-10T12:12:49.862Z,3.25
2022-09-10T12:15:37.932Z,2.42
2022-09-10T12:18:15.362Z,2.25
2022-09-10T12:20:49.105Z,2.50
2022-09-10T12:23:27.051Z,2.58
2022-09-10T12:26:01.369Z,2.42
2022-09-10T12:29:01.269Z,2.08
2022-09-10T12:31:28.114Z,2.10
2022-09-10T12:33:54.738Z,2.40
2022-09-10T12:36:41.544Z,1.88
2022-09-10T12:39:21.345Z,2.50
2022-09-10T12:41:48.440Z,2.20
2022-09-10T12:44:36.418Z,2.35
2022-09-10T12:47:15.080Z,2.20
2022-09-10T12:49:54.805Z,2.60
2022-09-10T12:52:32.311Z,2.70
2022-09-10T12:54:59.453Z,2.63
2022-09-10T12:57:38.237Z,2.33
2022-09-10T13:00:12.833Z,2.20
2022-09-10T13:02:58.319Z,1.98
2022-09-10T13:05:29.558Z,2.92
2022-09-10T13:08:02.043Z,3.05
2022-09-10T13:10:29.158Z,2.72
2022-09-10T13:12:58.573Z,2.40
2022-09-10T13:15:27.678Z,3.17
2022-09-10T13:17:54.506Z,2.85
2022-09-10T13:20:21.090Z,2.47
2022-09-10T13:22:56.055Z,2.80
2022-09-10T13:28:32.800Z,2.30
2022-09-10T13:31:11.258Z,2.00
2022-09-10T13:33:55.218Z,2.50
2022-09-10T13:36:24.976Z,3.45
2022-09-10T13:39:12.310Z,2.55
2022-09-10T13:41:50.514Z,2.10
2022-09-10T13:44:38.868Z,2.10
2022-09-10T13:47:28.297Z,2.42
2022-09-10T13:50:02.519Z,2.47
2022-09-10T13:52:34.592Z,2.28
2022-09-10T13:55:02.683Z,2.47
2022-09-10T13:57:43.351Z,1.95
2022-09-10T14:00:13.341Z,2.20
2022-09-10T14:02:48.724Z,2.30
2022-09-10T14:05:47.028Z,2.30
2022-09-10T14:08:30.556Z,2.33
2022-09-10T14:11:33.368Z,2.90
2022-09-10T14:14:09.766Z,2.58
2022-09-10T14:16:50.867Z,2.38
2022-09-10T14:21:50.267Z,2.33
2022-09-10T14:24:30.795Z,2.58
2022-09-10T14:27:15.649Z,2.20
2022-09-10T14:29:42.682Z,2.53
2022-09-10T14:32:41.486Z,2.67
2022-09-10T14:35:36.142Z,2.20
2022-09-10T14:38:07.354Z,2.58
2022-09-10T14:40:37.583Z,2.38
2022-09-10T14:43:27.488Z,2.70
2022-09-10T14:45:54.353Z,2.78
2022-09-10T14:48:41.419Z,2.45
2022-09-10T14:51:09.236Z,2.53
2022-09-10T14:53:35.881Z,2.42
2022-09-10T14:56:03.550Z,3.25
2022-09-10T14:58:30.275Z,5.50
2022-09-10T15:00:58.494Z,2.80
2022-09-10T15:03:25.196Z,3.38
2022-09-10T15:05:51.857Z,2.70
2022-09-10T15:08:18.473Z,2.70
2022-09-10T15:10:45.133Z,2.50
2022-09-10T15:13:16.160Z,3.72
2022-09-10T15:15:42.835Z,2.90
2022-09-10T15:18:18.338Z,2.80
2022-09-10T15:20:45.016Z,2.58
2022-09-10T15:23:11.679Z,2.90
2022-09-10T15:25:46.552Z,3.03
2022-09-10T15:28:13.254Z,2.78
2022-09-10T15:30:40.485Z,2.58
2022-09-10T15:33:08.081Z,5.03
2022-09-10T15:35:34.740Z,2.92
2022-09-10T15:38:02.253Z,2.33
2022-09-10T15:40:29.011Z,3.58
2022-09-10T15:42:55.659Z,3.03
2022-09-10T15:45:22.307Z,2.90
2022-09-10T15:47:48.937Z,2.95
2022-09-10T15:50:16.213Z,2.00
2022-09-10T15:52:45.046Z,2.75
2022-09-10T16:00:08.144Z,3.10
2022-09-10T16:02:34.883Z,3.53
2022-09-10T16:05:01.598Z,3.33
2022-09-10T16:07:29.436Z,5.07
2022-09-10T16:09:57.414Z,4.15
2022-09-10T16:12:27.529Z,3.30
2022-09-10T16:14:55.474Z,2.92
2022-09-10T16:17:22.196Z,2.67
2022-09-10T16:19:49.778Z,2.78
2022-09-10T16:22:20.054Z,2.95
2022-09-10T16:24:47.405Z,3.13
2022-09-10T16:27:16.292Z,2.75
2022-09-10T16:34:38.619Z,3.63
2022-09-10T16:37:05.747Z,3.38
2022-09-10T16:39:32.489Z,2.80
2022-09-10T16:41:59.466Z,3.30
2022-09-10T16:44:26.942Z,3.58
2022-09-10T16:46:53.596Z,3.60
2022-09-10T16:49:20.465Z,3.70
2022-09-10T16:51:49.035Z,3.75
2022-09-10T16:54:19.504Z,3.42
2022-09-10T16:56:47.324Z,3.60
2022-09-10T16:59:22.683Z,3.03
2022-09-10T17:01:51.969Z,3.58
2022-09-10T17:04:28.133Z,3.08
2022-09-10T17:06:56.292Z,3.55
2022-09-10T17:09:22.941Z,3.33
2022-09-10T17:11:49.647Z,3.33
2022-09-10T17:14:16.276Z,3.13
2022-09-10T17:16:43.627Z,3.80
2022-09-10T17:19:19.540Z,3.95
2022-09-10T17:21:51.181Z,3.17
2022-09-10T17:24:19.508Z,3.25
2022-09-10T17:26:46.186Z,3.03
2022-09-10T17:29:14.983Z,3.90
2022-09-10T17:31:42.092Z,3.70
2022-09-10T17:34:13.264Z,2.97
2022-09-10T17:36:41.813Z,3.83
2022-09-10T17:39:08.694Z,4.47
2022-09-10T17:41:35.554Z,4.57
2022-09-10T17:44:02.568Z,4.00
2022-09-10T17:46:31.203Z,3.53
2022-09-10T17:49:00.194Z,3.13
2022-09-10T17:53:55.415Z,2.97
2022-09-10T17:56:23.753Z,3.13
2022-09-10T17:58:51.711Z,4.00
2022-09-10T18:01:23.547Z,3.47
2022-09-10T18:03:51.047Z,3.63
2022-09-10T18:06:18.180Z,3.83
2022-09-10T18:08:45.391Z,3.83
2022-09-10T18:11:17.114Z,3.30
2022-09-10T18:13:44.809Z,2.92
2022-09-10T18:16:15.038Z,3.13
2022-09-10T18:18:41.784Z,3.28
2022-09-10T18:21:13.134Z,3.05
2022-09-10T18:23:41.393Z,2.50
2022-09-10T18:26:19.398Z,3.40
2022-09-10T18:28:53.628Z,2.47
2022-09-10T18:31:20.395Z,3.33
2022-09-10T18:33:47.370Z,3.28
2022-09-10T18:36:16.285Z,2.72
2022-09-10T18:38:43.130Z,4.20
2022-09-10T18:41:33.785Z,4.53
2022-09-10T18:44:04.069Z,3.20
2022-09-10T18:46:32.353Z,2.53
2022-09-10T18:48:59.932Z,2.45
2022-09-10T18:51:28.017Z,2.97
2022-09-10T18:53:58.312Z,2.38
2022-09-10T18:56:27.504Z,2.92
2022-09-10T18:59:07.349Z,3.20
2022-09-10T19:01:35.854Z,6.18
2022-09-10T19:04:04.368Z,3.45
2022-09-10T19:06:33.126Z,7.22
2022-09-10T19:09:04.180Z,3.45
2022-09-10T19:11:33.313Z,4.13
2022-09-10T19:14:02.993Z,3.20
2022-09-10T19:16:32.021Z,3.22
2022-09-10T19:19:02.904Z,4.57
2022-09-10T19:21:32.344Z,3.42
2022-09-10T19:24:00.575Z,3.47
2022-09-10T19:26:30.022Z,3.40
2022-09-10T19:28:57.688Z,3.10
2022-09-10T19:31:25.460Z,4.63
2022-09-10T19:33:56.799Z,3.03
2022-09-10T19:36:27.503Z,3.20
2022-09-10T19:38:54.817Z,3.65
2022-09-10T19:41:21.673Z,3.35
2022-09-10T19:43:50.076Z,3.55
2022-09-10T19:46:18.429Z,4.20
2022-09-10T19:48:49.185Z,3.75
2022-09-10T19:51:20.099Z,3.40
2022-09-10T19:53:47.708Z,3.55
2022-09-10T19:56:20.636Z,5.38
2022-09-10T19:58:52.052Z,4.28
2022-09-10T20:01:27.663Z,4.63
2022-09-10T20:03:55.930Z,4.25
2022-09-10T20:06:25.539Z,3.83
2022-09-10T20:08:52.380Z,4.63
2022-09-10T20:11:23.995Z,4.10
2022-09-10T20:13:57.990Z,3.80
2022-09-10T20:16:26.238Z,3.65
2022-09-10T20:18:53.183Z,3.90
2022-09-10T20:21:25.323Z,4.15
2022-09-10T20:23:55.576Z,5.03
2022-09-10T20:26:28.986Z,4.80
2022-09-10T20:29:06.441Z,4.63
2022-09-10T20:31:36.144Z,4.07
2022-09-10T20:34:05.292Z,4.45
2022-09-10T20:36:32.896Z,5.55
2022-09-10T20:38:59.592Z,6.95
2022-09-10T20:41:30.533Z,5.47
2022-09-10T20:43:59.328Z,4.22
2022-09-10T20:46:28.269Z,4.22
2022-09-10T20:48:59.222Z,4.18
2022-09-10T20:51:25.852Z,4.80
2022-09-10T20:53:52.511Z,4.60
2022-09-10T20:56:19.653Z,4.20
2022-09-10T20:58:47.014Z,4.07
2022-09-10T21:01:24.144Z,3.58
2022-09-10T21:03:55.033Z,3.78
2022-09-10T21:06:25.226Z,3.30
2022-09-10T21:08:51.975Z,4.03
2022-09-10T21:11:20.266Z,3.53
2022-09-10T21:13:49.803Z,2.90
2022-09-10T21:16:20.348Z,3.92
2022-09-10T21:18:54.584Z,3.85
2022-09-10T21:21:25.088Z,3.40
2022-09-10T21:23:53.467Z,3.55
2022-09-10T21:26:22.679Z,3.83
2022-09-10T21:28:52.850Z,4.03
2022-09-10T21:31:19.615Z,5.25
2022-09-10T21:33:46.284Z,9.48
2022-09-10T21:36:18.397Z,4.45
2022-09-10T21:38:52.219Z,4.35
2022-09-10T21:41:23.716Z,4.78
2022-09-10T21:43:50.369Z,4.35
2022-09-10T21:46:17.128Z,4.13
2022-09-10T21:48:44.157Z,4.15
2022-09-10T21:51:15.335Z,3.95
2022-09-10T21:53:42.908Z,4.63
2022-09-10T21:56:12.630Z,4.03
2022-09-10T21:58:39.806Z,4.38
2022-09-10T22:01:14.592Z,4.28
2022-09-10T22:03:41.720Z,5.13
2022-09-10T22:06:11.277Z,5.63
2022-09-10T22:08:40.639Z,5.07
2022-09-10T22:11:30.336Z,5.97
2022-09-10T22:14:02.100Z,5.80
2022-09-10T22:16:31.194Z,5.72
2022-09-10T22:18:59.318Z,5.38
2022-09-10T22:21:26.183Z,4.88
2022-09-10T22:23:53.034Z,5.72
2022-09-10T22:26:25.492Z,5.20
2022-09-10T22:28:56.413Z,5.57
2022-09-10T22:31:25.066Z,6.28
2022-09-10T22:34:00.111Z,5.85
2022-09-10T22:39:06.210Z,6.05
2022-09-10T22:41:34.457Z,8.07
2022-09-10T22:44:02.014Z,6.38
2022-09-10T22:46:29.097Z,5.63
2022-09-10T22:48:56.691Z,5.93
2022-09-10T22:51:28.814Z,7.45
2022-09-10T22:53:56.551Z,10.18
2022-09-10T22:56:26.287Z,9.25
2022-09-10T22:58:54.168Z,7.65
2022-09-10T23:01:23.077Z,9.40
2022-09-10T23:06:21.364Z,10.30
2022-09-10T23:08:51.246Z,8.20
2022-09-10T23:11:22.373Z,7.50
2022-09-10T23:13:54.142Z,8.60
2022-09-10T23:16:23.560Z,7.38
2022-09-10T23:18:54.823Z,8.05
2022-09-10T23:21:26.427Z,7.82
2022-09-10T23:24:00.849Z,7.97
2022-09-10T23:26:28.049Z,8.05
2022-09-10T23:28:55.717Z,7.72
2022-09-10T23:31:27.207Z,7.95
2022-09-10T23:33:59.335Z,8.43
2022-09-10T23:36:31.405Z,8.13
2022-09-10T23:39:05.094Z,9.23
2022-09-10T23:41:31.773Z,9.00
2022-09-10T23:43:58.691Z,9.02
2022-09-10T23:46:25.871Z,10.05
2022-09-10T23:48:52.628Z,9.15
2022-09-10T23:51:20.730Z,9.38
2022-09-10T23:53:48.232Z,9.25
2022-09-10T23:56:19.650Z,9.63
2022-09-10T23:58:47.693Z,10.05
